sensor_id;sensor_type;location;lat;lon;timestamp;pressure;altitude;pressure_sealevel;temperature
71564;BMP180;59391;52.504;13.438;2022-10-31T00:01:37;101469.00;;;18.20
71564;BMP180;59391;52.504;13.438;2022-10-31T00:04:03;101464.00;;;18.20
71564;BMP180;59391;52.504;13.438;2022-10-31T00:06:29;101468.00;;;18.20
71564;BMP180;59391;52.504;13.438;2022-10-31T00:09:04;101459.00;;;18.10
71564;BMP180;59391;52.504;13.438;2022-10-31T00:11:30;101462.00;;;18.10
71564;BMP180;59391;52.504;13.438;2022-10-31T00:14:01;101459.00;;;18.10
71564;BMP180;59391;52.504;13.438;2022-10-31T00:16:29;101472.00;;;18.00
71564;BMP180;59391;52.504;13.438;2022-10-31T00:19:04;101474.00;;;18.10
71564;BMP180;59391;52.504;13.438;2022-10-31T00:21:32;101467.00;;;18.10
71564;BMP180;59391;52.504;13.438;2022-10-31T00:23:58;101471.00;;;18.00
71564;BMP180;59391;52.504;13.438;2022-10-31T00:26:27;101479.00;;;18.00
71564;BMP180;59391;52.504;13.438;2022-10-31T00:28:53;101478.00;;;18.00
71564;BMP180;59391;52.504;13.438;2022-10-31T00:31:21;101465.00;;;18.00
71564;BMP180;59391;52.504;13.438;2022-10-31T00:33:46;101474.00;;;18.00
71564;BMP180;59391;52.504;13.438;2022-10-31T00:36:18;101487.00;;;17.90
71564;BMP180;59391;52.504;13.438;2022-10-31T00:38:52;101480.00;;;17.90
71564;BMP180;59391;52.504;13.438;2022-10-31T00:41:18;101484.00;;;17.90
71564;BMP180;59391;52.504;13.438;2022-10-31T00:43:44;101466.00;;;17.90
71564;BMP180;59391;52.504;13.438;2022-10-31T00:46:11;101494.00;;;17.90
71564;BMP180;59391;52.504;13.438;2022-10-31T00:48:37;101482.00;;;17.90
71564;BMP180;59391;52.504;13.438;2022-10-31T00:51:05;101481.00;;;17.90
71564;BMP180;59391;52.504;13.438;2022-10-31T00:53:31;101490.00;;;17.80
71564;BMP180;59391;52.504;13.438;2022-10-31T00:55:57;101497.00;;;17.80
71564;BMP180;59391;52.504;13.438;2022-10-31T00:58:23;101502.00;;;17.80
71564;BMP180;59391;52.504;13.438;2022-10-31T01:00:49;101487.00;;;17.80
71564;BMP180;59391;52.504;13.438;2022-10-31T01:03:32;101499.00;;;17.80
71564;BMP180;59391;52.504;13.438;2022-10-31T01:08:29;101499.00;;;17.60
71564;BMP180;59391;52.504;13.438;2022-10-31T01:11:12;101505.00;;;17.70
71564;BMP180;59391;52.504;13.438;2022-10-31T01:13:38;101502.00;;;17.70
71564;BMP180;59391;52.504;13.438;2022-10-31T01:16:06;101509.00;;;17.70
71564;BMP180;59391;52.504;13.438;2022-10-31T01:18:32;101506.00;;;17.70
71564;BMP180;59391;52.504;13.438;2022-10-31T01:21:08;101505.00;;;17.60
71564;BMP180;59391;52.504;13.438;2022-10-31T01:23:34;101513.00;;;17.70
71564;BMP180;59391;52.504;13.438;2022-10-31T01:26:15;101508.00;;;17.60
71564;BMP180;59391;52.504;13.438;2022-10-31T01:28:51;101508.00;;;17.60
71564;BMP180;59391;52.504;13.438;2022-10-31T01:31:22;101505.00;;;17.60
71564;BMP180;59391;52.504;13.438;2022-10-31T01:33:48;101505.00;;;17.60
71564;BMP180;59391;52.504;13.438;2022-10-31T01:36:19;101503.00;;;17.60
71564;BMP180;59391;52.504;13.438;2022-10-31T01:38:47;101505.00;;;17.60
71564;BMP180;59391;52.504;13.438;2022-10-31T01:41:17;101499.00;;;17.60
71564;BMP180;59391;52.504;13.438;2022-10-31T01:46:20;101510.00;;;17.60
71564;BMP180;59391;52.504;13.438;2022-10-31T01:48:47;101515.00;;;17.60
71564;BMP180;59391;52.504;13.438;2022-10-31T01:51:16;101513.00;;;17.60
71564;BMP180;59391;52.504;13.438;2022-10-31T01:53:44;101505.00;;;17.60
71564;BMP180;59391;52.504;13.438;2022-10-31T01:56:11;101502.00;;;17.60
71564;BMP180;59391;52.504;13.438;2022-10-31T01:58:38;101510.00;;;17.60
71564;BMP180;59391;52.504;13.438;2022-10-31T02:01:05;101505.00;;;17.60
71564;BMP180;59391;52.504;13.438;2022-10-31T02:03:31;101515.00;;;17.60
71564;BMP180;59391;52.504;13.438;2022-10-31T02:05:58;101519.00;;;17.60
71564;BMP180;59391;52.504;13.438;2022-10-31T02:08:30;101512.00;;;17.50
71564;BMP180;59391;52.504;13.438;2022-10-31T02:11:00;101515.00;;;17.60
71564;BMP180;59391;52.504;13.438;2022-10-31T02:13:31;101461.00;;;17.60
71564;BMP180;59391;52.504;13.438;2022-10-31T02:16:00;101468.00;;;17.60
71564;BMP180;59391;52.504;13.438;2022-10-31T02:18:30;101513.00;;;17.60
71564;BMP180;59391;52.504;13.438;2022-10-31T02:21:27;101514.00;;;17.60
71564;BMP180;59391;52.504;13.438;2022-10-31T02:24:40;101520.00;;;17.60
71564;BMP180;59391;52.504;13.438;2022-10-31T02:27:16;101511.00;;;17.60
71564;BMP180;59391;52.504;13.438;2022-10-31T02:30:16;101513.00;;;17.60
71564;BMP180;59391;52.504;13.438;2022-10-31T02:33:25;101517.00;;;17.50
71564;BMP180;59391;52.504;13.438;2022-10-31T02:36:11;101514.00;;;17.50
71564;BMP180;59391;52.504;13.438;2022-10-31T02:38:56;101500.00;;;17.50
71564;BMP180;59391;52.504;13.438;2022-10-31T02:47:02;101511.00;;;17.50
71564;BMP180;59391;52.504;13.438;2022-10-31T02:49:49;101509.00;;;17.40
71564;BMP180;59391;52.504;13.438;2022-10-31T02:52:26;101519.00;;;17.40
71564;BMP180;59391;52.504;13.438;2022-10-31T02:54:53;101528.00;;;17.40
71564;BMP180;59391;52.504;13.438;2022-10-31T02:57:31;101517.00;;;17.40
71564;BMP180;59391;52.504;13.438;2022-10-31T03:00:03;101528.00;;;17.40
71564;BMP180;59391;52.504;13.438;2022-10-31T03:02:43;101523.00;;;17.40
71564;BMP180;59391;52.504;13.438;2022-10-31T03:05:55;101533.00;;;17.30
71564;BMP180;59391;52.504;13.438;2022-10-31T03:08:51;101525.00;;;17.30
71564;BMP180;59391;52.504;13.438;2022-10-31T03:11:24;101524.00;;;17.30
71564;BMP180;59391;52.504;13.438;2022-10-31T03:14:10;101533.00;;;17.30
71564;BMP180;59391;52.504;13.438;2022-10-31T03:16:47;101535.00;;;17.30
71564;BMP180;59391;52.504;13.438;2022-10-31T03:19:20;101534.00;;;17.30
71564;BMP180;59391;52.504;13.438;2022-10-31T03:21:57;101534.00;;;17.30
71564;BMP180;59391;52.504;13.438;2022-10-31T03:24:29;101541.00;;;17.30
71564;BMP180;59391;52.504;13.438;2022-10-31T03:26:59;101557.00;;;17.40
71564;BMP180;59391;52.504;13.438;2022-10-31T03:29:31;101546.00;;;17.40
71564;BMP180;59391;52.504;13.438;2022-10-31T03:32:04;101550.00;;;17.40
71564;BMP180;59391;52.504;13.438;2022-10-31T03:34:35;101544.00;;;17.40
71564;BMP180;59391;52.504;13.438;2022-10-31T03:37:07;101549.00;;;17.40
71564;BMP180;59391;52.504;13.438;2022-10-31T03:39:38;101550.00;;;17.30
71564;BMP180;59391;52.504;13.438;2022-10-31T03:42:13;101562.00;;;17.40
71564;BMP180;59391;52.504;13.438;2022-10-31T03:44:46;101573.00;;;17.40
71564;BMP180;59391;52.504;13.438;2022-10-31T03:47:15;101573.00;;;17.40
71564;BMP180;59391;52.504;13.438;2022-10-31T03:49:44;101569.00;;;17.40
71564;BMP180;59391;52.504;13.438;2022-10-31T03:53:04;101577.00;;;17.40
71564;BMP180;59391;52.504;13.438;2022-10-31T03:55:49;101576.00;;;17.40
71564;BMP180;59391;52.504;13.438;2022-10-31T03:58:28;101582.00;;;17.40
71564;BMP180;59391;52.504;13.438;2022-10-31T04:00:59;101577.00;;;17.40
71564;BMP180;59391;52.504;13.438;2022-10-31T04:03:36;101562.00;;;17.40
71564;BMP180;59391;52.504;13.438;2022-10-31T04:06:07;101568.00;;;17.40
71564;BMP180;59391;52.504;13.438;2022-10-31T04:08:44;101573.00;;;17.40
71564;BMP180;59391;52.504;13.438;2022-10-31T04:11:13;101575.00;;;17.40
71564;BMP180;59391;52.504;13.438;2022-10-31T04:13:43;101575.00;;;17.40
71564;BMP180;59391;52.504;13.438;2022-10-31T04:16:11;101575.00;;;17.40
71564;BMP180;59391;52.504;13.438;2022-10-31T04:18:37;101581.00;;;17.40
71564;BMP180;59391;52.504;13.438;2022-10-31T04:21:06;101575.00;;;17.40
71564;BMP180;59391;52.504;13.438;2022-10-31T04:23:34;101575.00;;;17.40
71564;BMP180;59391;52.504;13.438;2022-10-31T04:26:00;101575.00;;;17.40
71564;BMP180;59391;52.504;13.438;2022-10-31T04:28:26;101570.00;;;17.40
71564;BMP180;59391;52.504;13.438;2022-10-31T04:30:52;101572.00;;;17.40
71564;BMP180;59391;52.504;13.438;2022-10-31T04:33:18;101575.00;;;17.40
71564;BMP180;59391;52.504;13.438;2022-10-31T04:35:44;101591.00;;;17.40
71564;BMP180;59391;52.504;13.438;2022-10-31T04:38:09;101592.00;;;17.40
71564;BMP180;59391;52.504;13.438;2022-10-31T04:40:35;101589.00;;;17.40
71564;BMP180;59391;52.504;13.438;2022-10-31T04:43:00;101599.00;;;17.40
71564;BMP180;59391;52.504;13.438;2022-10-31T04:45:26;101602.00;;;17.50
71564;BMP180;59391;52.504;13.438;2022-10-31T04:47:52;101581.00;;;17.50
71564;BMP180;59391;52.504;13.438;2022-10-31T04:50:18;101591.00;;;17.50
71564;BMP180;59391;52.504;13.438;2022-10-31T04:52:46;101596.00;;;17.40
71564;BMP180;59391;52.504;13.438;2022-10-31T04:55:12;101598.00;;;17.40
71564;BMP180;59391;52.504;13.438;2022-10-31T04:57:47;101605.00;;;17.40
71564;BMP180;59391;52.504;13.438;2022-10-31T05:00:16;101570.00;;;17.40
71564;BMP180;59391;52.504;13.438;2022-10-31T05:02:52;101586.00;;;17.30
71564;BMP180;59391;52.504;13.438;2022-10-31T05:05:26;101597.00;;;17.40
71564;BMP180;59391;52.504;13.438;2022-10-31T05:07:53;101597.00;;;17.30
71564;BMP180;59391;52.504;13.438;2022-10-31T05:10:22;101598.00;;;17.40
71564;BMP180;59391;52.504;13.438;2022-10-31T05:12:54;101605.00;;;17.40
71564;BMP180;59391;52.504;13.438;2022-10-31T05:15:25;101591.00;;;17.30
71564;BMP180;59391;52.504;13.438;2022-10-31T05:17:53;101601.00;;;17.30
71564;BMP180;59391;52.504;13.438;2022-10-31T05:20:22;101604.00;;;17.30
71564;BMP180;59391;52.504;13.438;2022-10-31T05:22:54;101604.00;;;17.30
71564;BMP180;59391;52.504;13.438;2022-10-31T05:25:23;101615.00;;;17.30
71564;BMP180;59391;52.504;13.438;2022-10-31T05:27:51;101606.00;;;17.30
71564;BMP180;59391;52.504;13.438;2022-10-31T05:30:24;101624.00;;;17.30
71564;BMP180;59391;52.504;13.438;2022-10-31T05:32:51;101616.00;;;17.30
71564;BMP180;59391;52.504;13.438;2022-10-31T05:35:36;101580.00;;;17.20
71564;BMP180;59391;52.504;13.438;2022-10-31T05:38:02;101618.00;;;17.20
71564;BMP180;59391;52.504;13.438;2022-10-31T05:40:28;101598.00;;;17.20
71564;BMP180;59391;52.504;13.438;2022-10-31T05:42:56;101616.00;;;17.20
71564;BMP180;59391;52.504;13.438;2022-10-31T05:45:23;101621.00;;;17.20
71564;BMP180;59391;52.504;13.438;2022-10-31T05:48:03;101605.00;;;17.20
71564;BMP180;59391;52.504;13.438;2022-10-31T05:50:31;101614.00;;;17.20
71564;BMP180;59391;52.504;13.438;2022-10-31T05:53:03;101618.00;;;17.20
71564;BMP180;59391;52.504;13.438;2022-10-31T05:55:30;101624.00;;;17.30
71564;BMP180;59391;52.504;13.438;2022-10-31T05:57:56;101628.00;;;17.30
71564;BMP180;59391;52.504;13.438;2022-10-31T06:00:28;101618.00;;;17.30
71564;BMP180;59391;52.504;13.438;2022-10-31T06:02:59;101627.00;;;17.20
71564;BMP180;59391;52.504;13.438;2022-10-31T06:05:25;101621.00;;;17.20
71564;BMP180;59391;52.504;13.438;2022-10-31T06:07:51;101630.00;;;17.30
71564;BMP180;59391;52.504;13.438;2022-10-31T06:10:17;101620.00;;;17.20
71564;BMP180;59391;52.504;13.438;2022-10-31T06:12:44;101636.00;;;17.30
71564;BMP180;59391;52.504;13.438;2022-10-31T06:15:10;101626.00;;;17.30
71564;BMP180;59391;52.504;13.438;2022-10-31T06:17:36;101623.00;;;17.30
71564;BMP180;59391;52.504;13.438;2022-10-31T06:20:03;101638.00;;;17.30
71564;BMP180;59391;52.504;13.438;2022-10-31T06:22:29;101644.00;;;17.30
71564;BMP180;59391;52.504;13.438;2022-10-31T06:24:55;101618.00;;;17.30
71564;BMP180;59391;52.504;13.438;2022-10-31T06:27:21;101644.00;;;17.30
71564;BMP180;59391;52.504;13.438;2022-10-31T06:29:47;101646.00;;;17.40
71564;BMP180;59391;52.504;13.438;2022-10-31T06:32:14;101633.00;;;17.40
71564;BMP180;59391;52.504;13.438;2022-10-31T06:34:41;101650.00;;;17.40
71564;BMP180;59391;52.504;13.438;2022-10-31T06:37:11;101649.00;;;17.40
71564;BMP180;59391;52.504;13.438;2022-10-31T06:39:37;101631.00;;;17.40
71564;BMP180;59391;52.504;13.438;2022-10-31T06:42:07;101662.00;;;17.50
71564;BMP180;59391;52.504;13.438;2022-10-31T06:44:33;101646.00;;;17.50
71564;BMP180;59391;52.504;13.438;2022-10-31T06:46:59;101657.00;;;17.50
71564;BMP180;59391;52.504;13.438;2022-10-31T06:49:24;101669.00;;;17.60
71564;BMP180;59391;52.504;13.438;2022-10-31T06:51:50;101671.00;;;17.60
71564;BMP180;59391;52.504;13.438;2022-10-31T06:54:17;101661.00;;;17.60
71564;BMP180;59391;52.504;13.438;2022-10-31T06:56:45;101675.00;;;17.70
71564;BMP180;59391;52.504;13.438;2022-10-31T06:59:11;101671.00;;;17.70
71564;BMP180;59391;52.504;13.438;2022-10-31T07:01:37;101682.00;;;17.80
71564;BMP180;59391;52.504;13.438;2022-10-31T07:04:02;101678.00;;;17.80
71564;BMP180;59391;52.504;13.438;2022-10-31T07:06:28;101681.00;;;17.90
71564;BMP180;59391;52.504;13.438;2022-10-31T07:08:54;101654.00;;;17.90
71564;BMP180;59391;52.504;13.438;2022-10-31T07:11:21;101693.00;;;18.00
71564;BMP180;59391;52.504;13.438;2022-10-31T07:13:47;101688.00;;;18.00
71564;BMP180;59391;52.504;13.438;2022-10-31T07:16:13;101692.00;;;18.10
71564;BMP180;59391;52.504;13.438;2022-10-31T07:18:39;101682.00;;;18.10
71564;BMP180;59391;52.504;13.438;2022-10-31T07:21:05;101686.00;;;18.20
71564;BMP180;59391;52.504;13.438;2022-10-31T07:23:32;101692.00;;;18.30
71564;BMP180;59391;52.504;13.438;2022-10-31T07:25:58;101697.00;;;18.40
71564;BMP180;59391;52.504;13.438;2022-10-31T07:28:29;101682.00;;;18.50
71564;BMP180;59391;52.504;13.438;2022-10-31T07:30:57;101688.00;;;18.70
71564;BMP180;59391;52.504;13.438;2022-10-31T07:33:24;101686.00;;;19.00
71564;BMP180;59391;52.504;13.438;2022-10-31T07:35:54;101683.00;;;19.30
71564;BMP180;59391;52.504;13.438;2022-10-31T07:38:19;101692.00;;;19.60
71564;BMP180;59391;52.504;13.438;2022-10-31T07:40:51;101706.00;;;20.00
71564;BMP180;59391;52.504;13.438;2022-10-31T07:43:19;101703.00;;;20.40
71564;BMP180;59391;52.504;13.438;2022-10-31T07:45:53;101705.00;;;20.70
71564;BMP180;59391;52.504;13.438;2022-10-31T07:48:22;101698.00;;;21.00
71564;BMP180;59391;52.504;13.438;2022-10-31T07:50:47;101709.00;;;21.20
71564;BMP180;59391;52.504;13.438;2022-10-31T07:53:14;101712.00;;;21.50
71564;BMP180;59391;52.504;13.438;2022-10-31T07:55:41;101694.00;;;21.70
71564;BMP180;59391;52.504;13.438;2022-10-31T07:58:15;101696.00;;;21.90
71564;BMP180;59391;52.504;13.438;2022-10-31T08:00:44;101720.00;;;22.00
71564;BMP180;59391;52.504;13.438;2022-10-31T08:03:14;101732.00;;;21.90
71564;BMP180;59391;52.504;13.438;2022-10-31T08:05:41;101726.00;;;21.90
71564;BMP180;59391;52.504;13.438;2022-10-31T08:08:08;101733.00;;;21.80
71564;BMP180;59391;52.504;13.438;2022-10-31T08:10:35;101721.00;;;21.60
71564;BMP180;59391;52.504;13.438;2022-10-31T08:13:04;101723.00;;;21.50
71564;BMP180;59391;52.504;13.438;2022-10-31T08:15:32;101714.00;;;21.30
71564;BMP180;59391;52.504;13.438;2022-10-31T08:17:59;101720.00;;;21.30
71564;BMP180;59391;52.504;13.438;2022-10-31T08:20:25;101723.00;;;21.20
71564;BMP180;59391;52.504;13.438;2022-10-31T08:23:00;101714.00;;;21.00
71564;BMP180;59391;52.504;13.438;2022-10-31T08:25:28;101719.00;;;21.00
71564;BMP180;59391;52.504;13.438;2022-10-31T08:27:55;101714.00;;;20.90
71564;BMP180;59391;52.504;13.438;2022-10-31T08:30:25;101727.00;;;20.80
71564;BMP180;59391;52.504;13.438;2022-10-31T08:33:02;101735.00;;;20.70
71564;BMP180;59391;52.504;13.438;2022-10-31T08:35:28;101732.00;;;20.60
71564;BMP180;59391;52.504;13.438;2022-10-31T08:37:58;101741.00;;;20.60
71564;BMP180;59391;52.504;13.438;2022-10-31T08:40:25;101742.00;;;20.50
71564;BMP180;59391;52.504;13.438;2022-10-31T08:43:15;101744.00;;;20.50
71564;BMP180;59391;52.504;13.438;2022-10-31T08:45:42;101745.00;;;20.50
71564;BMP180;59391;52.504;13.438;2022-10-31T08:48:12;101737.00;;;20.50
71564;BMP180;59391;52.504;13.438;2022-10-31T08:50:39;101736.00;;;20.60
71564;BMP180;59391;52.504;13.438;2022-10-31T08:53:09;101731.00;;;20.60
71564;BMP180;59391;52.504;13.438;2022-10-31T08:55:38;101726.00;;;20.70
71564;BMP180;59391;52.504;13.438;2022-10-31T08:58:07;101726.00;;;20.90
71564;BMP180;59391;52.504;13.438;2022-10-31T09:00:34;101721.00;;;21.00
71564;BMP180;59391;52.504;13.438;2022-10-31T09:03:04;101729.00;;;21.10
71564;BMP180;59391;52.504;13.438;2022-10-31T09:05:35;101731.00;;;21.30
71564;BMP180;59391;52.504;13.438;2022-10-31T09:08:04;101743.00;;;21.60
71564;BMP180;59391;52.504;13.438;2022-10-31T09:10:32;101737.00;;;21.80
71564;BMP180;59391;52.504;13.438;2022-10-31T09:13:10;101746.00;;;22.20
71564;BMP180;59391;52.504;13.438;2022-10-31T09:15:39;101753.00;;;22.50
71564;BMP180;59391;52.504;13.438;2022-10-31T09:18:06;101744.00;;;22.50
71564;BMP180;59391;52.504;13.438;2022-10-31T09:20:34;101760.00;;;22.60
71564;BMP180;59391;52.504;13.438;2022-10-31T09:23:13;101756.00;;;22.60
71564;BMP180;59391;52.504;13.438;2022-10-31T09:25:39;101761.00;;;22.60
71564;BMP180;59391;52.504;13.438;2022-10-31T09:28:08;101766.00;;;22.70
71564;BMP180;59391;52.504;13.438;2022-10-31T09:30:35;101760.00;;;23.00
71564;BMP180;59391;52.504;13.438;2022-10-31T09:33:04;101760.00;;;23.30
71564;BMP180;59391;52.504;13.438;2022-10-31T09:35:30;101765.00;;;23.60
71564;BMP180;59391;52.504;13.438;2022-10-31T09:38:05;101767.00;;;23.80
71564;BMP180;59391;52.504;13.438;2022-10-31T09:40:45;101764.00;;;24.00
71564;BMP180;59391;52.504;13.438;2022-10-31T09:43:39;101757.00;;;24.50
71564;BMP180;59391;52.504;13.438;2022-10-31T09:49:23;101775.00;;;25.20
71564;BMP180;59391;52.504;13.438;2022-10-31T09:52:14;101764.00;;;25.40
71564;BMP180;59391;52.504;13.438;2022-10-31T09:55:04;101773.00;;;25.30
71564;BMP180;59391;52.504;13.438;2022-10-31T09:57:34;101771.00;;;25.10
71564;BMP180;59391;52.504;13.438;2022-10-31T10:00:04;101766.00;;;24.90
71564;BMP180;59391;52.504;13.438;2022-10-31T10:03:00;101777.00;;;24.50
71564;BMP180;59391;52.504;13.438;2022-10-31T10:05:43;101761.00;;;24.30
71564;BMP180;59391;52.504;13.438;2022-10-31T10:08:32;101770.00;;;24.40
71564;BMP180;59391;52.504;13.438;2022-10-31T10:11:39;101768.00;;;25.00
71564;BMP180;59391;52.504;13.438;2022-10-31T10:14:35;101773.00;;;25.80
71564;BMP180;59391;52.504;13.438;2022-10-31T10:20:31;101766.00;;;27.10
71564;BMP180;59391;52.504;13.438;2022-10-31T10:28:40;101755.00;;;27.40
71564;BMP180;59391;52.504;13.438;2022-10-31T10:31:20;101756.00;;;27.40
71564;BMP180;59391;52.504;13.438;2022-10-31T10:34:18;101744.00;;;27.10
71564;BMP180;59391;52.504;13.438;2022-10-31T10:36:56;101753.00;;;27.00
71564;BMP180;59391;52.504;13.438;2022-10-31T10:39:44;101748.00;;;27.10
71564;BMP180;59391;52.504;13.438;2022-10-31T10:42:14;101745.00;;;27.60
71564;BMP180;59391;52.504;13.438;2022-10-31T10:44:59;101747.00;;;28.30
71564;BMP180;59391;52.504;13.438;2022-10-31T10:47:56;101748.00;;;29.10
71564;BMP180;59391;52.504;13.438;2022-10-31T10:50:39;101745.00;;;29.80
71564;BMP180;59391;52.504;13.438;2022-10-31T10:56:18;101747.00;;;31.10
71564;BMP180;59391;52.504;13.438;2022-10-31T10:58:46;101744.00;;;31.60
71564;BMP180;59391;52.504;13.438;2022-10-31T11:01:14;101742.00;;;32.00
71564;BMP180;59391;52.504;13.438;2022-10-31T11:03:41;101749.00;;;32.40
71564;BMP180;59391;52.504;13.438;2022-10-31T11:06:19;101749.00;;;32.90
71564;BMP180;59391;52.504;13.438;2022-10-31T11:08:48;101756.00;;;33.20
71564;BMP180;59391;52.504;13.438;2022-10-31T11:13:46;101745.00;;;33.90
71564;BMP180;59391;52.504;13.438;2022-10-31T11:16:35;101745.00;;;34.10
71564;BMP180;59391;52.504;13.438;2022-10-31T11:19:21;101750.00;;;34.10
71564;BMP180;59391;52.504;13.438;2022-10-31T11:21:48;101741.00;;;34.10
71564;BMP180;59391;52.504;13.438;2022-10-31T11:24:18;101741.00;;;34.10
71564;BMP180;59391;52.504;13.438;2022-10-31T11:26:47;101736.00;;;34.20
71564;BMP180;59391;52.504;13.438;2022-10-31T11:29:25;101731.00;;;34.30
71564;BMP180;59391;52.504;13.438;2022-10-31T11:31:56;101730.00;;;34.40
71564;BMP180;59391;52.504;13.438;2022-10-31T11:34:34;101739.00;;;34.50
71564;BMP180;59391;52.504;13.438;2022-10-31T11:37:24;101741.00;;;34.90
71564;BMP180;59391;52.504;13.438;2022-10-31T11:39:58;101734.00;;;35.20
71564;BMP180;59391;52.504;13.438;2022-10-31T11:42:38;101728.00;;;35.50
71564;BMP180;59391;52.504;13.438;2022-10-31T11:45:26;101737.00;;;35.90
71564;BMP180;59391;52.504;13.438;2022-10-31T11:47:54;101739.00;;;36.20
71564;BMP180;59391;52.504;13.438;2022-10-31T11:50:27;101737.00;;;36.50
71564;BMP180;59391;52.504;13.438;2022-10-31T11:52:54;101739.00;;;36.70
71564;BMP180;59391;52.504;13.438;2022-10-31T11:55:34;101735.00;;;36.90
71564;BMP180;59391;52.504;13.438;2022-10-31T11:58:00;101738.00;;;37.00
71564;BMP180;59391;52.504;13.438;2022-10-31T12:00:36;101738.00;;;36.90
71564;BMP180;59391;52.504;13.438;2022-10-31T12:03:36;101721.00;;;36.60
71564;BMP180;59391;52.504;13.438;2022-10-31T12:06:21;101735.00;;;36.40
71564;BMP180;59391;52.504;13.438;2022-10-31T12:08:47;101723.00;;;36.30
71564;BMP180;59391;52.504;13.438;2022-10-31T12:12:05;101718.00;;;36.20
71564;BMP180;59391;52.504;13.438;2022-10-31T12:15:05;101720.00;;;35.90
71564;BMP180;59391;52.504;13.438;2022-10-31T12:17:46;101731.00;;;35.60
71564;BMP180;59391;52.504;13.438;2022-10-31T12:20:41;101725.00;;;35.20
71564;BMP180;59391;52.504;13.438;2022-10-31T12:23:18;101724.00;;;34.70
71564;BMP180;59391;52.504;13.438;2022-10-31T12:26:08;101724.00;;;34.30
71564;BMP180;59391;52.504;13.438;2022-10-31T12:35:16;101716.00;;;33.50
71564;BMP180;59391;52.504;13.438;2022-10-31T12:41:28;101703.00;;;33.90
71564;BMP180;59391;52.504;13.438;2022-10-31T12:53:19;101707.00;;;33.70
71564;BMP180;59391;52.504;13.438;2022-10-31T12:56:04;101700.00;;;33.40
71564;BMP180;59391;52.504;13.438;2022-10-31T12:58:49;101703.00;;;32.90
71564;BMP180;59391;52.504;13.438;2022-10-31T13:01:45;101700.00;;;32.50
71564;BMP180;59391;52.504;13.438;2022-10-31T13:04:42;101700.00;;;32.30
71564;BMP180;59391;52.504;13.438;2022-10-31T13:07:13;101700.00;;;32.20
71564;BMP180;59391;52.504;13.438;2022-10-31T13:10:03;101700.00;;;32.10
71564;BMP180;59391;52.504;13.438;2022-10-31T13:12:33;101691.00;;;32.00
71564;BMP180;59391;52.504;13.438;2022-10-31T13:15:12;101699.00;;;31.90
71564;BMP180;59391;52.504;13.438;2022-10-31T13:17:48;101686.00;;;31.70
71564;BMP180;59391;52.504;13.438;2022-10-31T13:20:30;101687.00;;;31.60
71564;BMP180;59391;52.504;13.438;2022-10-31T13:25:51;101684.00;;;31.40
71564;BMP180;59391;52.504;13.438;2022-10-31T13:28:35;101686.00;;;31.20
71564;BMP180;59391;52.504;13.438;2022-10-31T13:31:01;101685.00;;;31.10
71564;BMP180;59391;52.504;13.438;2022-10-31T13:33:46;101678.00;;;30.90
71564;BMP180;59391;52.504;13.438;2022-10-31T13:36:36;101685.00;;;30.60
71564;BMP180;59391;52.504;13.438;2022-10-31T13:44:52;101669.00;;;29.80
71564;BMP180;59391;52.504;13.438;2022-10-31T13:47:27;101676.00;;;29.50
71564;BMP180;59391;52.504;13.438;2022-10-31T13:50:21;101667.00;;;29.20
71564;BMP180;59391;52.504;13.438;2022-10-31T13:52:47;101675.00;;;29.00
71564;BMP180;59391;52.504;13.438;2022-10-31T13:58:33;101671.00;;;28.50
71564;BMP180;59391;52.504;13.438;2022-10-31T14:03:39;101659.00;;;28.20
71564;BMP180;59391;52.504;13.438;2022-10-31T14:06:08;101660.00;;;28.10
71564;BMP180;59391;52.504;13.438;2022-10-31T14:08:40;101651.00;;;28.00
71564;BMP180;59391;52.504;13.438;2022-10-31T14:11:09;101644.00;;;27.80
71564;BMP180;59391;52.504;13.438;2022-10-31T14:13:45;101653.00;;;27.60
71564;BMP180;59391;52.504;13.438;2022-10-31T14:16:31;101636.00;;;27.20
71564;BMP180;59391;52.504;13.438;2022-10-31T14:19:06;101607.00;;;27.20
71564;BMP180;59391;52.504;13.438;2022-10-31T14:21:41;101613.00;;;27.00
71564;BMP180;59391;52.504;13.438;2022-10-31T14:24:36;101580.00;;;26.70
71564;BMP180;59391;52.504;13.438;2022-10-31T14:29:53;101640.00;;;26.30
71564;BMP180;59391;52.504;13.438;2022-10-31T14:32:24;101645.00;;;26.10
71564;BMP180;59391;52.504;13.438;2022-10-31T14:37:32;101635.00;;;25.70
71564;BMP180;59391;52.504;13.438;2022-10-31T14:40:48;101630.00;;;25.50
71564;BMP180;59391;52.504;13.438;2022-10-31T14:43:47;101638.00;;;25.30
71564;BMP180;59391;52.504;13.438;2022-10-31T14:46:53;101613.00;;;25.10
71564;BMP180;59391;52.504;13.438;2022-10-31T14:49:58;101627.00;;;24.90
71564;BMP180;59391;52.504;13.438;2022-10-31T14:52:28;101627.00;;;24.70
71564;BMP180;59391;52.504;13.438;2022-10-31T14:54:56;101620.00;;;24.60
71564;BMP180;59391;52.504;13.438;2022-10-31T14:57:34;101627.00;;;24.40
71564;BMP180;59391;52.504;13.438;2022-10-31T15:00:07;101606.00;;;24.20
71564;BMP180;59391;52.504;13.438;2022-10-31T15:03:08;101614.00;;;24.00
71564;BMP180;59391;52.504;13.438;2022-10-31T15:05:34;101623.00;;;23.80
71564;BMP180;59391;52.504;13.438;2022-10-31T15:08:00;101627.00;;;23.70
71564;BMP180;59391;52.504;13.438;2022-10-31T15:10:30;101616.00;;;23.50
71564;BMP180;59391;52.504;13.438;2022-10-31T15:13:20;101622.00;;;23.40
71564;BMP180;59391;52.504;13.438;2022-10-31T15:15:48;101609.00;;;23.20
71564;BMP180;59391;52.504;13.438;2022-10-31T15:18:21;101625.00;;;23.10
71564;BMP180;59391;52.504;13.438;2022-10-31T15:20:47;101609.00;;;22.90
71564;BMP180;59391;52.504;13.438;2022-10-31T15:23:27;101615.00;;;22.70
71564;BMP180;59391;52.504;13.438;2022-10-31T15:26:03;101608.00;;;22.60
71564;BMP180;59391;52.504;13.438;2022-10-31T15:28:30;101601.00;;;22.50